Airfield :







YOU CAN JOIN US ON...

 
LOGIN :

Register | Disclaimer

   EN    FR    IT 

 









Legend :    VFR   Marginal VFR   IFR   Intensive IFR   Very Intensive IFR
Visi :
Ceiling :
>= 8 km
>= 3000ft
5 to 8 km
1000 to 3000 ft
1500m to 5 km
500 to 1000 ft
800 to 1500m
200 to 500 ft
< 800m
< 200 ft
Symbols :   Thunderstorms  Fog  Heavy snow  Heavy precipitations  Wind > 20 kt






- Airport Elevation : 141 ft
- IATA code : YQI


CYQI - Yarmouth

CURRENT METAR :
  • 110552Z 34015G26KT 4SM SHRA BR OVC006 06/06 A2993 RMK SF8 CVCTV CLD EMBD SLP136

EXPIRED METARs :
  • 110508Z 34017G24KT 3SM -SHRA BR OVC005 07/07 A2989 RMK SF8 CVCTV CLD EMBD SLP124
  • 110500Z 33017G26KT 3SM SHRA BR OVC005 07/07 A2989 RMK SF8 CVCTV CLD EMBD PRESRR SLP124
  • 110454Z 33020G26KT 270V340 2SM SHRA BR OVC004 08/08 A2988 RMK SF8 CVCTV CLD EMBD SLP122
  • 110400Z 24014KT 2SM -SHRA BR OVC003 10/10 A2985 RMK SF8 CVCTV CLD EMBD SLP111
  • 110319Z 24014G19KT 2SM -SHRA BR OVC004 10/10 A2986 RMK SF8 CVCTV CLD EMBD SLP113
  • 110300Z CCA 24011G18KT 3SM -SHRA BR BKN008 OVC025 10/10 A2984 RMK SF7SC1 CVCTV CLD EMBD SLP107

TAF TAF CYQI
Valid from the 11 at 06:00 until the 11 at 18:00 UTC


110538Z 1106/1118 34015G25KT 2SM -SHRA BR OVC005
TEMPO 1106/1110 6SM BR OVC010
FM111000 34015G25KT 6SM -SHRASN OVC015
TEMPO 1110/1114 2SM -SHSNRAPL BR OVC007
FM111400 35010G20KT 11/2SM -SN VV009
TEMPO 1114/1118 3/4SM -SN VV006 RMK NXT FCST BY 111200Z



MET'MAP, your aeronautical weather chart ! - Copyright ORBIFLY December 2007 - Disclaimer

ORBIFLY MET'MAP TEAM :

Programming & Development : Alexandra Zaïnal
Concept & original design : Baudouin d'Aumeries
Assistance for programming : Marc-Olivier Méhu
Technical & hardware support : Manuel Goepfert

Contact : metmap@orbifly.com




SOURCES & CREDITS :

   NOAA